x

8557380 - Lewes, De (lwsd1) Weather Station

9:54am - Tue 13th Nov 2018 All times are EST. -5 hours from GMT.

  • Wind
    18mph, 22mph gusts
  • Sea Temp 54°f
  • Air Temp 54°f
  • Sea Pressure 1012.2mb
  • 8557380 - Lewes, De
  • 8557380 - Lewes, De

More Historic Weather Station data

Upgrade to MSW Pro to gain access to the past 30 days of data for over 8000 Wavebouys and Weather Stations around the globe.

Join

Comparision Forecast

View Surf forecast
   
Tue 11/13 9:54am 18 22 mph 1012.2mb 54f 54f
9:48am 20 22 mph 1012.1mb 54f 54f
9:42am 20 22 mph 1011.9mb 54f 55f
9:36am 16 21 mph 1011.6mb 54f 56f
9:30am 17 20 mph 1011.7mb 54f 56f
9:24am 17 20 mph 1012mb 54f 57f
9:18am 21 24 mph 1011.7mb 54f 58f
9:12am 21 24 mph 1011.7mb 54f 58f
9:06am 17 23 mph 1011.3mb 54f 61f
9:00am 14 18 mph 1011.3mb 54f 63f
8:54am 14 17 mph 1011.3mb 54f 63f
8:48am 11 16 mph 1011.2mb 54f 63f
8:42am 10 14 mph 1011mb 54f 63f
8:36am 7 9 mph 1011mb 54f 58f
8:30am 8 11 mph 1010.8mb 54f 63f
8:24am 7 9 mph 1010.7mb 53f 63f
8:18am 7 9 mph 1010.7mb 53f 64f
8:12am 8 10 mph 1010.8mb 53f 64f
8:06am 9 11 mph 1011mb 53f 64f
8:00am 8 14 mph 1011mb 53f 64f
7:54am 8 11 mph 1010.9mb 53f 64f
7:48am 8 14 mph 1010.8mb 53f 64f
7:42am 8 14 mph 1010.7mb 53f 64f
7:36am 8 11 mph 1010.7mb 53f 64f
7:30am 6 11 mph 1010.7mb 53f 64f
7:24am 7 10 mph 1010.7mb 54f 64f
7:18am 8 11 mph 1010.8mb 54f 64f
7:12am 10 17 mph 1010.7mb 54f 65f
7:06am 10 15 mph 1010.7mb 54f 64f
7:00am 9 14 mph 1010.4mb 54f 64f
6:54am 8 14 mph 1010.6mb 54f 64f
6:48am 10 17 mph - - -
6:42am 10 18 mph 1010.5mb 54f 63f
6:36am 10 21 mph 1010.8mb 54f 63f
6:30am 10 18 mph 1010.9mb 54f 63f
6:24am 13 23 mph 1010.9mb 54f 63f
6:18am 15 24 mph 1010.9mb 53f 63f
6:12am 14 22 mph 1011.1mb 53f 63f
6:06am 14 26 mph 1011.3mb 53f 62f
6:00am 15 24 mph 1011.3mb 53f 62f
5:54am 14 20 mph 1011.3mb 53f 62f
5:48am 15 24 mph 1011.4mb 53f 62f
5:42am 17 29 mph 1011.4mb 53f 61f
5:36am 16 24 mph 1011.5mb 53f 61f
5:30am 14 24 mph 1011.5mb 53f 61f
5:24am 14 24 mph 1011.7mb 53f 61f
5:18am 14 24 mph 1011.7mb 53f 61f
5:12am 13 20 mph 1011.7mb 53f 60f
5:06am 11 20 mph 1011.7mb 53f 60f
5:00am 18 28 mph 1011.6mb 53f 60f
4:54am 15 22 mph 1011.9mb 53f 60f
4:48am 16 23 mph 1012.2mb - -
4:42am 14 22 mph 1012.5mb 53f 59f
4:36am 13 24 mph 1012.7mb 53f 59f
4:30am 11 16 mph 1012.9mb 53f 59f
4:24am 13 21 mph 1013.2mb 53f 59f
4:18am 10 14 mph 1013.3mb 53f 59f
4:12am 11 16 mph 1013.4mb 53f 58f
4:06am 11 18 mph 1013.7mb 53f 58f
4:00am 14 20 mph 1013.9mb 53f 58f
3:54am 11 16 mph 1013.8mb 53f 58f
3:48am 9 14 mph 1014.4mb - -
3:42am 9 13 mph 1014.7mb 53f 57f
3:36am 10 14 mph 1015mb 53f 57f
3:30am 11 15 mph 1015.4mb 53f 57f
3:24am 13 17 mph 1015.9mb 54f 57f
3:18am 13 15 mph 1016.3mb 53f 56f
3:12am 10 15 mph 1016.6mb 53f 56f
3:06am 10 15 mph 1017mb 53f 56f
3:00am 7 11 mph 1017.2mb 53f 56f
2:54am 11 14 mph 1017.3mb 53f 56f
2:48am 8 11 mph 1017.6mb 53f -
2:42am 9 13 mph 1017.8mb 53f 56f
2:36am 7 11 mph 1017.9mb 53f 56f
2:30am 10 13 mph 1017.9mb 53f 56f
2:24am 9 11 mph 1017.8mb 53f 56f
2:18am 11 16 mph 1018.2mb 53f 56f
2:12am 9 13 mph 1018.4mb 53f 56f
2:06am 8 14 mph 1018.7mb 53f 56f
2:00am 7 10 mph 1018.8mb 53f 56f
1:54am 8 10 mph 1019.1mb 53f 55f
1:48am 9 14 mph 1019.4mb 53f 55f
1:42am 8 14 mph 1019.4mb 53f 55f
1:36am 7 10 mph 1019.7mb 53f 55f
1:30am 8 11 mph 1019.9mb 53f 55f
1:24am 7 9 mph 1020.1mb 53f 55f
1:18am 7 9 mph 1020.5mb 53f 55f
1:12am 6 8 mph 1020.8mb 53f 55f
1:06am 6 7 mph 1021mb 53f 55f
1:00am 5 7 mph 1021.3mb 53f 54f
12:54am 3 5 mph 1021.4mb 53f 54f
12:48am 5 7 mph 1021.4mb 53f 54f
12:42am 6 8 mph 1021.4mb 53f 54f
12:36am 6 7 mph 1021.7mb 53f 54f
12:30am 5 6 mph 1021.9mb 53f 54f
12:24am 6 8 mph 1022mb 53f 54f
12:18am 6 7 mph 1022.1mb 53f 54f
12:12am 6 7 mph 1022.3mb 53f 54f
12:06am 6 7 mph 1022.4mb 53f 53f
12:00am 5 6 mph 1022.5mb 53f 53f
Mon 11/12 11:54pm 6 7 mph 1022.5mb 53f 53f
11:48pm 6 7 mph 1022.6mb - -
11:42pm 6 7 mph 1022.8mb 53f 53f
11:36pm 5 6 mph 1023.1mb 53f 53f
11:30pm 6 8 mph 1023.2mb 53f 53f
11:24pm 6 7 mph 1023.3mb 53f 53f
11:18pm 6 7 mph 1023.2mb 53f 53f
11:12pm 6 9 mph 1023.3mb 53f 53f
11:06pm 6 8 mph 1023.3mb 53f 53f
11:00pm 6 7 mph 1023.3mb 53f 53f
10:54pm 7 8 mph 1023.3mb 53f 53f
10:48pm 6 9 mph 1023.4mb 53f 53f
10:42pm 6 7 mph 1023.5mb 53f 53f
10:36pm 7 8 mph 1023.6mb 53f 53f
10:30pm 6 9 mph 1023.6mb 53f 53f
10:24pm 6 8 mph 1023.6mb 53f 53f
10:18pm 7 9 mph 1023.7mb 53f 52f
10:12pm 7 9 mph 1023.9mb 53f 52f
10:06pm 7 9 mph 1023.9mb 53f 52f
10:00pm 7 9 mph 1024.1mb 53f 52f
9:54pm 7 9 mph 1024.2mb 53f 52f
9:48pm 8 10 mph - - -
9:42pm 8 11 mph 1024.4mb 53f 52f
9:36pm 7 9 mph 1024.4mb 53f 52f
9:30pm 10 14 mph 1024.3mb 53f 52f
9:24pm 8 11 mph 1024.4mb 53f 52f
9:18pm 8 10 mph - - -
9:12pm 7 8 mph 1024.9mb 53f 52f
9:06pm 6 8 mph 1025mb 53f 52f
9:00pm 6 7 mph 1025.2mb 53f 52f
8:54pm 6 9 mph 1025.2mb 53f 52f
8:48pm 7 9 mph 1025.2mb 53f 52f
8:42pm 8 10 mph 1025.3mb 53f 51f
8:36pm 6 7 mph 1025.5mb 53f 51f
8:30pm 6 7 mph 1025.8mb 53f 51f
8:24pm 5 6 mph 1026mb 53f 51f
8:18pm 3 6 mph 1026.2mb 53f -
8:12pm 3 5 mph 1026.3mb 53f 51f
8:06pm 2 3 mph 1026.4mb 53f 51f
8:00pm 3 5 mph 1026.5mb 53f 51f
7:48pm 5 6 mph - - -
7:42pm 5 6 mph 1026.4mb 53f 51f
7:36pm 6 7 mph 1026.3mb 53f 51f
7:30pm 3 5 mph 1026.4mb 53f 51f
7:24pm 3 5 mph 1026.4mb 53f 51f
7:18pm 6 6 mph 1026.5mb 53f 51f
7:12pm 6 6 mph 1026.7mb 53f 51f
7:06pm 5 6 mph 1026.8mb 53f 51f
7:00pm 5 6 mph 1027mb 53f 52f
6:54pm 5 6 mph 1027.1mb 53f 52f
6:48pm 2 2 mph 1027.2mb 53f 51f
6:42pm 1 2 mph 1027.2mb 53f 52f
6:36pm 3 6 mph 1027.2mb 53f 52f
6:30pm 2 3 mph 1027.3mb 53f 52f
6:24pm 2 2 mph 1027.4mb 53f 52f
6:18pm  -  1 mph 1027.5mb 53f 52f
6:12pm  -  1 mph 1027.5mb 53f 52f
6:06pm  -  1 mph 1027.5mb 53f 52f
6:00pm  -  1 mph 1027.4mb 53f 52f
5:54pm 2 2 mph 1027.3mb 53f 52f
5:48pm 2 3 mph 1027.4mb - -
5:42pm 3 5 mph 1027.3mb 53f 52f
5:36pm 3 3 mph 1027.1mb 53f 52f
5:30pm 3 5 mph 1027.2mb 53f 52f
5:24pm 3 5 mph 1027.2mb 53f 51f
5:18pm 2 3 mph 1027.2mb 53f 51f
5:12pm 2 3 mph 1027.2mb 53f 51f
5:06pm 3 5 mph 1027mb 53f 51f
5:00pm 3 5 mph 1027mb 53f 51f
4:54pm 5 6 mph 1027.2mb 53f 51f
4:48pm 5 6 mph 1027.3mb 53f 51f
4:42pm 5 6 mph 1027.3mb 53f 51f
4:36pm 5 6 mph 1027.3mb 53f 51f
4:30pm 3 6 mph 1027.3mb 53f 51f
4:24pm 5 6 mph 1027.3mb 53f 51f
4:18pm 5 6 mph 1027.5mb 53f 51f
4:12pm 5 6 mph 1027.6mb 53f 51f
4:06pm 5 6 mph 1027.6mb 53f 51f
4:00pm 6 8 mph 1027.4mb 53f 51f
3:54pm 6 8 mph 1027.3mb 53f 51f
3:48pm 6 8 mph - - -
3:42pm 6 8 mph 1027.4mb 53f 51f
3:36pm 6 7 mph 1027.4mb 53f 51f
3:30pm 5 8 mph 1027.4mb 53f 51f
3:24pm 3 5 mph 1027.5mb 53f 51f
3:18pm 3 5 mph 1027.5mb 53f 51f
3:12pm 5 6 mph 1027.4mb 53f 51f
3:06pm 3 5 mph 1027.4mb 53f 51f
3:00pm 6 7 mph 1027.4mb 53f 51f
2:54pm 3 6 mph 1027.4mb 53f 51f
2:48pm 2 5 mph 1027.4mb 53f -
2:42pm 1 2 mph 1027.5mb 53f 51f
2:36pm 1 2 mph 1027.4mb 53f 51f
2:30pm 3 3 mph 1027.3mb 53f 51f
2:24pm 2 3 mph 1027.4mb 53f 51f
2:18pm 3 3 mph 1027.5mb 53f 51f
2:12pm 2 3 mph 1027.6mb 53f 51f
2:06pm 3 5 mph 1027.6mb 53f 51f
2:00pm 3 5 mph 1027.6mb 53f 51f
1:54pm 3 5 mph 1027.5mb 53f 51f
1:48pm 6 6 mph 1027.7mb 53f 51f
1:42pm 5 6 mph 1027.7mb 53f 51f
1:36pm 3 6 mph 1027.7mb 53f 51f
1:30pm 5 6 mph 1028mb 53f 51f
1:24pm 6 7 mph 1028mb 53f 51f
1:18pm 5 6 mph 1028.1mb 53f 50f
1:12pm 5 7 mph 1028.2mb 53f 50f
1:06pm 2 3 mph 1028.2mb 53f 50f
1:00pm 3 6 mph 1028.2mb 53f 50f
12:54pm 5 7 mph 1028.3mb 53f 51f
12:48pm 5 7 mph 1028.4mb 53f 50f
12:42pm 5 7 mph 1028.4mb 53f 50f
12:36pm 7 10 mph 1028.3mb 53f 50f
12:30pm 7 10 mph 1028.5mb 53f 50f
12:24pm 5 6 mph 1028.4mb 53f 50f
12:18pm 6 7 mph 1028.7mb 53f 50f
12:12pm 6 8 mph 1028.7mb 53f 50f
12:06pm 7 9 mph 1028.8mb 53f 50f
12:00pm 6 6 mph 1028.9mb 53f 50f
11:54am 3 6 mph 1029.1mb 53f 50f
11:48am 5 7 mph 1029.3mb - -
11:42am 3 6 mph 1029.5mb 53f 50f
11:36am 2 3 mph 1029.7mb 53f 51f
11:30am 3 6 mph 1029.6mb 53f 50f
11:24am 5 8 mph 1029.7mb 53f 50f
11:18am 3 3 mph 1029.7mb 53f 51f
11:12am 5 6 mph 1029.6mb 53f 50f
11:06am 7 9 mph 1029.7mb 53f 50f
11:00am 6 9 mph 1029.9mb 53f 50f
10:54am 5 8 mph 1030mb 53f 50f
10:48am 6 9 mph 1030.1mb 53f 50f
10:42am 7 9 mph 1030.1mb 53f 50f
10:36am 5 8 mph 1030.1mb 53f 50f
10:30am 6 9 mph 1030.1mb 53f 50f
10:24am 6 9 mph 1030.2mb 53f 50f
10:18am 6 8 mph 1030.2mb - -
10:12am 7 10 mph 1030.2mb 53f 49f
10:06am 9 11 mph 1030.4mb 53f 49f
10:00am 6 8 mph 1030.4mb 53f 49f
9:54am 7 10 mph 1030.4mb 53f 49f
9:48am 8 11 mph 1030.4mb 53f 49f
9:42am 3 5 mph 1030.5mb 53f 49f
9:36am 5 6 mph 1030.5mb 53f 49f
9:30am 5 6 mph 1030.6mb 53f 49f
9:24am 2 6 mph 1030.6mb 53f 48f
9:18am  -  1 mph - - -
9:12am 1 2 mph 1030.4mb 53f 48f
9:06am  -  1 mph 1030.3mb 53f 47f
9:00am 1 1 mph 1030.4mb 53f 46f
8:54am  -  1 mph 1030.3mb 53f 45f
8:48am 1 1 mph 1030.2mb 53f 44f
8:42am 1 2 mph 1030.2mb 54f 44f
8:36am 1 2 mph 1030.3mb 54f 44f
8:30am  -  0 mph 1030.1mb 54f 44f
8:24am  -  1 mph 1030.3mb 54f 43f
8:18am 2 2 mph 1030.5mb 54f 42f
8:12am 2 3 mph 1030.6mb 54f 42f
8:06am 2 2 mph 1030.6mb 54f 42f
8:00am 2 2 mph 1030.5mb 54f 42f
7:54am  -  1 mph 1030.4mb 54f 42f
7:48am  -  1 mph 1030.4mb - -
7:42am  -  0 mph 1030.3mb 54f 42f
7:36am  -  1 mph 1030.3mb 54f 41f
7:30am  -  1 mph 1030.4mb 54f 41f
7:24am  -  1 mph 1030.4mb 54f 41f
7:18am  -  1 mph 1030.5mb 54f 41f
7:12am 2 2 mph 1030.6mb 54f 41f
7:06am 2 3 mph 1030.6mb 54f 41f
7:00am 3 3 mph 1030.6mb 54f 41f
6:54am 2 2 mph 1030.4mb 54f 41f
6:48am 2 2 mph 1030.5mb 54f 40f
6:42am 2 2 mph 1030.5mb 54f 40f
6:36am 2 2 mph 1030.6mb 54f 40f
6:30am 2 3 mph 1030.7mb 54f 40f
6:24am 3 3 mph 1030.8mb 54f 39f
6:18am 3 3 mph 1030.8mb 54f 39f
6:12am 3 3 mph 1030.7mb 54f 40f
6:06am 3 3 mph 1030.6mb 54f 40f
6:00am 2 2 mph 1030.6mb 53f 40f
5:54am 2 2 mph 1030.6mb 53f 40f
5:48am 3 5 mph 1030.7mb 53f 39f
5:42am 3 3 mph 1030.5mb 53f 39f
5:36am 3 3 mph 1030.5mb 53f 39f
5:30am  -  1 mph 1030.4mb 53f 39f
5:24am 2 2 mph 1030.1mb 53f 40f
5:18am 2 3 mph 1030mb 53f 41f
5:12am 2 2 mph 1029.7mb 53f 40f
5:06am 2 3 mph 1029.9mb 53f 41f
5:00am 5 5 mph 1030.1mb 53f 42f
4:54am 5 5 mph 1030mb 53f 42f
4:48am 6 6 mph 1029.9mb 53f 42f
4:42am 6 6 mph 1029.8mb 53f 42f
4:36am 6 6 mph 1029.8mb 53f 41f
4:30am 6 7 mph 1029.7mb 53f 39f
4:24am 6 7 mph 1029.8mb 53f 40f
4:18am 6 6 mph - - -
4:12am 6 6 mph 1029.6mb 53f 40f
4:06am 6 6 mph 1029.6mb 53f 39f
4:00am 6 6 mph 1029.5mb 53f 40f
3:18am 3 3 mph 1029.5mb 53f -
3:12am 2 2 mph 1029.6mb 53f 38f
3:06am 5 6 mph 1029.7mb 53f 39f
3:00am 6 6 mph 1029.8mb 53f 39f
2:54am 6 7 mph 1029.7mb 53f 40f
2:48am 6 6 mph 1029.7mb 53f 41f
2:42am 6 6 mph 1029.7mb 53f 40f
2:36am 6 6 mph 1029.7mb 53f 40f
2:30am 5 6 mph 1029.6mb 53f 39f
2:24am 5 6 mph 1029.5mb 53f 38f
2:18am 6 6 mph 1029.6mb 53f 39f
2:12am 6 6 mph 1029.6mb 53f 39f
2:06am 6 6 mph 1029.6mb 53f 39f
2:00am 6 7 mph 1029.6mb 53f 38f
1:54am 6 6 mph 1029.6mb 53f 37f
1:48am 6 7 mph 1029.6mb 53f 37f
1:42am 6 7 mph 1029.6mb 53f 38f
1:36am 6 7 mph 1029.4mb 53f 38f
1:30am 6 7 mph 1029.5mb 53f 39f
1:24am 6 7 mph 1029.5mb 53f 38f
1:18am 6 7 mph - - -
1:12am 6 7 mph 1029.6mb 52f 39f
1:06am 6 7 mph 1029.6mb 52f 39f
1:00am 6 6 mph 1029.6mb 52f 39f
12:54am 6 7 mph 1029.6mb 52f 39f
12:48am 5 6 mph 1029.7mb 52f 39f
12:42am 5 5 mph 1029.7mb 52f 40f
12:36am 3 5 mph 1029.7mb 52f 39f
12:30am 2 3 mph 1029.8mb 52f 39f
12:24am 5 5 mph 1029.8mb 52f 40f
12:18am 5 6 mph 1029.8mb 52f 39f
12:12am 5 6 mph 1029.8mb 52f 38f
12:06am 5 6 mph 1029.9mb 52f 38f
12:00am 3 5 mph 1030mb 52f -
Sun 11/11 11:54pm 5 6 mph 1029.9mb 52f 38f
11:48pm 5 6 mph 1030mb 52f 38f
11:42pm 5 6 mph 1030mb 52f 38f
11:36pm 5 6 mph 1030mb 52f 38f
11:30pm 6 6 mph 1030mb 52f 39f
11:24pm 5 6 mph 1030mb 52f 38f
11:18pm 5 6 mph 1030mb 52f 41f
11:12pm 5 5 mph 1030mb 52f 40f
11:06pm 5 5 mph 1030mb 52f 42f
11:00pm 5 5 mph 1030mb 52f 40f
10:54pm 5 5 mph 1029.9mb 52f 40f
10:48pm 5 5 mph 1030mb 52f 40f
10:42pm 5 6 mph 1029.9mb 52f 40f
10:36pm 6 6 mph 1030mb 52f 40f
10:30pm 6 6 mph 1030mb 52f 40f
10:24pm 5 6 mph 1030mb 52f 41f
10:18pm 5 5 mph 1029.9mb 52f 40f
10:12pm 5 6 mph 1030mb 52f 39f
10:06pm 3 5 mph 1030mb 52f 39f
10:00pm 5 6 mph 1029.9mb 52f 40f
9:54pm 5 6 mph 1030mb 52f 39f
9:48pm 3 5 mph 1030mb 52f -
9:42pm 5 6 mph 1030.1mb 52f 39f
9:36pm 6 7 mph 1030mb 52f 40f
9:30pm 6 6 mph 1029.9mb 52f 40f
9:24pm 6 6 mph 1029.9mb 52f 40f
9:18pm 5 6 mph 1029.8mb - -
9:12pm 6 7 mph 1029.8mb 52f 40f
9:06pm 6 7 mph 1029.7mb 52f 40f
9:00pm 7 7 mph 1029.7mb 52f 40f
8:54pm 6 6 mph 1029.7mb 52f 39f
8:48pm 3 5 mph 1029.5mb 52f 39f
8:42pm 3 3 mph 1029.5mb 52f 40f
8:36pm 3 3 mph 1029.5mb 52f 40f
8:30pm 5 5 mph 1029.5mb 52f 40f
8:24pm 3 5 mph 1029.5mb 52f 39f
8:18pm 5 5 mph 1029.5mb - -
8:12pm 5 6 mph 1029.5mb 52f 40f
8:06pm 3 5 mph 1029.5mb 52f 39f
8:00pm 3 3 mph 1029.6mb 52f 39f
7:48pm 5 6 mph - - -
7:42pm 5 6 mph 1029.5mb 52f 40f
7:36pm 5 7 mph 1029.4mb 52f 41f
7:30pm 6 7 mph 1029.4mb 52f 40f
7:24pm 3 6 mph 1029.4mb 52f 40f
7:18pm 3 5 mph 1029.4mb - -
7:12pm 3 6 mph 1029.4mb 52f 40f
7:06pm 5 6 mph 1029.4mb 52f 40f
7:00pm 2 3 mph 1029.3mb 52f 41f
6:54pm 3 6 mph 1029.3mb 52f 41f
6:48pm 3 6 mph 1029.2mb 52f 41f
6:42pm 5 6 mph 1029.2mb 52f 42f
6:36pm 3 5 mph 1029.1mb 52f 41f
6:30pm 5 5 mph 1029.2mb 52f 41f
6:24pm 5 6 mph 1029.3mb 52f 41f
6:18pm 5 6 mph 1029.2mb 52f 41f
6:12pm 3 5 mph 1029.1mb 52f 41f
6:06pm 3 3 mph 1029mb 52f 42f
6:00pm 3 3 mph 1029mb 52f 42f
5:54pm 3 3 mph 1028.9mb 52f 42f
5:48pm 3 3 mph 1028.8mb 52f -
5:42pm 2 3 mph 1028.7mb 52f 42f
5:36pm 2 3 mph 1028.8mb 52f 43f
5:30pm 2 3 mph 1028.7mb - -
5:24pm 3 5 mph 1028.7mb 52f 43f
5:18pm 2 3 mph 1028.6mb 52f 42f
5:12pm 2 3 mph 1028.6mb 52f 43f
5:06pm 2 3 mph 1028.7mb 52f 43f
5:00pm 3 3 mph 1028.7mb 52f 42f
4:54pm 3 3 mph 1028.6mb 52f 42f
4:48pm 3 3 mph 1028.6mb 52f -
4:42pm 3 5 mph 1028.5mb 52f 44f
4:36pm 2 3 mph 1028.6mb 52f 44f
4:30pm  -  1 mph 1028.6mb 52f 46f
4:24pm  -  1 mph 1028.5mb 52f 46f
4:18pm 1 2 mph 1028.5mb 52f 46f
4:12pm 2 2 mph 1028.6mb 52f 46f
4:06pm 2 5 mph 1028.6mb 52f 46f
4:00pm 3 3 mph 1028.6mb 52f 46f
3:54pm 1 2 mph 1028.6mb 52f 46f
3:48pm 3 5 mph 1028.6mb - -
3:42pm 2 5 mph 1028.6mb 52f 45f
3:36pm 3 5 mph 1028.6mb 52f 45f
3:30pm 3 6 mph 1028.6mb 52f 45f
3:24pm 1 3 mph 1028.6mb 52f 45f
3:18pm 2 5 mph 1028.6mb 52f 45f
3:12pm 3 5 mph 1028.6mb 52f 45f
3:06pm 2 6 mph 1028.6mb 52f 44f
3:00pm 1 6 mph 1028.6mb 52f 45f
2:54pm 2 6 mph 1028.6mb 51f 44f
2:48pm 1 3 mph 1028.7mb - -
2:42pm 3 5 mph 1028.7mb 51f 44f
2:36pm 5 6 mph 1028.7mb 51f 44f
2:30pm 2 5 mph 1028.7mb 51f 44f
2:24pm 2 8 mph 1028.8mb 51f 44f
2:18pm 1 2 mph 1028.9mb 51f 44f
2:12pm 3 6 mph 1028.9mb 51f 44f
2:06pm 6 8 mph 1028.9mb 51f 44f
2:00pm 5 9 mph 1028.9mb 51f 43f
1:54pm 3 6 mph 1029mb 51f 43f
1:48pm 5 8 mph 1029mb 51f 43f
1:42pm 6 8 mph 1029mb 51f 43f
1:36pm 5 8 mph 1029.1mb 51f 43f
1:30pm 3 6 mph 1029.2mb 51f 43f
1:24pm 3 6 mph 1029.2mb 51f 42f
1:18pm 6 9 mph 1029.3mb 51f 43f
1:12pm 3 6 mph 1029.3mb 51f 43f
1:06pm 5 8 mph 1029.3mb 51f 42f
1:00pm 5 6 mph 1029.4mb 51f 42f
12:54pm 2 2 mph 1029.5mb 51f 42f
12:48pm 5 6 mph - - -
12:42pm 5 7 mph 1029.6mb 51f 41f
12:36pm 7 9 mph 1029.6mb 51f 42f
12:30pm 6 7 mph 1029.6mb 51f 41f
12:24pm 3 5 mph 1029.7mb 51f 42f
12:18pm 6 8 mph 1029.7mb 51f 41f
12:12pm 5 6 mph 1029.9mb 51f 41f
12:06pm 6 9 mph 1029.9mb 51f 41f
12:00pm 5 7 mph 1030mb 51f 41f
11:18am 6 7 mph 1030.5mb 51f -
11:12am 7 9 mph 1030.5mb 51f 41f
11:06am 9 10 mph 1030.5mb 51f 41f
11:00am 6 8 mph 1030.6mb 51f 41f
10:54am 5 9 mph 1030.7mb 51f 42f
10:48am 10 14 mph 1030.8mb 51f 41f
10:42am 7 10 mph 1030.9mb 51f 41f
10:36am 7 8 mph 1030.8mb 51f 41f
10:30am 7 10 mph 1030.8mb 51f 41f
10:24am 9 11 mph 1030.8mb 51f 41f
10:18am 6 9 mph 1030.9mb - -
10:12am 8 11 mph 1030.9mb 51f 41f
10:06am 6 9 mph 1030.9mb 51f 41f
10:00am 8 11 mph 1030.9mb 51f 40f
9:54am 10 11 mph 1030.9mb 51f 40f
9:48am 8 10 mph 1030.9mb 51f 41f
9:42am 11 15 mph 1030.9mb 51f 40f
9:36am 10 14 mph 1030.9mb 51f 41f
9:30am 11 16 mph 1030.9mb 51f 40f
9:24am 9 13 mph 1030.9mb 51f 41f
9:18am 10 16 mph 1030.9mb 51f 41f
9:12am 11 16 mph 1030.9mb 51f 40f
9:06am 13 16 mph 1030.8mb 51f 41f
9:00am 11 16 mph 1030.7mb 51f 40f
8:54am 9 14 mph 1030.7mb 51f 40f
8:48am 13 16 mph 1030.7mb 51f 40f
8:42am 11 16 mph 1030.7mb 51f 40f
8:36am 11 15 mph 1030.7mb 51f 40f
8:30am 13 17 mph 1030.8mb 51f 40f
8:24am 10 16 mph 1030.8mb 51f 41f
8:18am 10 15 mph 1030.9mb 51f 40f
8:12am 10 15 mph 1030.8mb 51f 40f
8:06am 13 16 mph 1030.7mb 51f 40f
8:00am 14 18 mph 1030.6mb 51f 40f
7:54am 16 21 mph 1030.6mb 51f 40f
7:48am 11 15 mph 1030.6mb 51f 39f
7:42am 14 16 mph 1030.6mb 52f 39f
7:36am 11 16 mph 1030.5mb 52f 39f
7:30am 15 20 mph 1030.5mb 52f 40f
7:24am 17 24 mph 1030.4mb 52f 39f
7:18am 17 21 mph - - -
7:12am 16 21 mph 1030.3mb 52f 38f
7:06am 16 20 mph 1030.3mb 52f 38f
7:00am 18 23 mph 1030.2mb 52f 38f
6:54am 17 21 mph 1030.1mb 52f 38f
6:48am 16 18 mph 1030.1mb 52f 38f
6:42am 18 23 mph 1030.1mb 52f 37f
6:36am 17 21 mph 1030mb 52f 37f
6:30am 17 21 mph 1030mb 51f 38f
6:24am 18 22 mph 1029.9mb 51f 37f
6:18am 17 21 mph 1029.9mb 51f 37f
6:12am 18 22 mph 1029.9mb 51f 37f
6:06am 17 21 mph 1029.8mb 51f 37f
6:00am 20 25 mph 1029.6mb 51f 37f
5:18am 18 22 mph - - -
5:12am 20 24 mph 1029.2mb 51f 38f
5:06am 21 24 mph 1029mb 51f 38f
5:00am 17 22 mph 1028.9mb 51f 38f
4:54am 21 23 mph 1028.9mb 51f 37f
4:48am 20 23 mph 1028.9mb 51f 37f
4:42am 18 23 mph 1028.9mb 52f 37f
4:36am 18 22 mph 1028.8mb 52f 37f
4:30am 21 24 mph 1028.7mb 52f 37f
4:24am 20 23 mph 1028.7mb 52f 37f
4:18am 21 24 mph 1028.6mb 52f -
4:12am 20 25 mph 1028.6mb 52f 37f
4:06am 18 22 mph 1028.6mb 52f 38f
4:00am 18 22 mph 1028.6mb 52f 37f
3:18am 17 24 mph 1028.1mb - -
3:12am 17 22 mph 1028.2mb 52f 38f
3:06am 21 26 mph 1028.2mb 52f 38f
3:00am 18 23 mph 1028.4mb 52f 38f
2:12am 21 23 mph 1028.3mb 52f 37f
2:06am 18 23 mph 1028.4mb 52f 38f
2:00am 18 24 mph 1028.4mb 52f 38f
1:54am 20 23 mph 1028.4mb 52f 38f
1:48am 21 25 mph 1028.5mb 52f 38f
1:42am 22 24 mph 1028.4mb 52f 38f
1:36am 22 25 mph 1028.3mb 52f 38f
1:30am 21 23 mph 1028.1mb 52f 38f
1:24am 21 23 mph 1028.1mb 52f 39f
1:18am 22 26 mph 1028mb - -
1:12am 21 25 mph 1028mb 52f 38f
1:06am 17 22 mph 1028mb 52f 38f
1:00am 16 21 mph 1027.9mb 53f 38f
12:54am 18 22 mph 1027.8mb 53f 38f
12:48am 17 21 mph 1027.8mb 53f 38f
12:42am 18 23 mph 1027.7mb 53f 38f
12:36am 18 23 mph 1027.7mb 53f 37f
12:30am 18 22 mph 1027.6mb 53f 36f
12:24am 18 22 mph 1027.6mb 53f 36f
12:18am 18 21 mph 1027.6mb 53f 36f
12:12am 16 20 mph 1027.5mb 53f 36f
12:06am 14 17 mph 1027.6mb 53f 36f
12:00am 14 17 mph 1027.5mb 53f 36f
Sat 11/10 11:54pm 13 15 mph 1027.3mb 53f 36f
11:48pm 14 17 mph 1027.2mb 53f 36f
11:42pm 16 18 mph 1027.1mb 53f 37f
11:36pm 16 20 mph 1027.1mb 53f 37f
11:30pm 15 17 mph 1027.1mb 53f 37f
11:24pm 16 20 mph 1026.9mb 53f 37f
11:18pm 16 21 mph 1027mb 53f 37f
11:12pm 17 18 mph 1026.8mb 53f 37f
11:06pm 16 18 mph 1026.9mb 53f 37f
11:00pm 16 18 mph 1026.7mb 53f 36f
10:54pm 14 16 mph 1027mb 53f 37f
10:48pm 16 18 mph 1026.8mb 53f 37f
10:42pm 14 17 mph 1026.9mb 53f 37f
10:36pm 14 16 mph 1027mb 53f 37f
10:30pm 14 16 mph 1026.9mb 53f 37f
10:24pm 13 15 mph 1026.9mb 54f 37f
10:18pm 13 14 mph 1026.9mb 54f -
10:12pm 13 14 mph 1026.9mb 54f 38f
10:06pm 14 16 mph 1026.8mb 54f 37f
10:00pm 13 15 mph 1026.9mb 54f 37f
9:54pm 10 13 mph 1026.8mb 54f 37f
9:48pm 10 14 mph 1026.8mb 54f -
9:42pm 9 13 mph 1026.9mb 54f 37f
9:36pm 11 16 mph 1026.7mb 54f 37f
9:30pm 10 13 mph 1026.6mb 54f 36f
9:24pm 9 13 mph 1026.7mb 54f 38f
9:18pm 9 13 mph 1026.7mb 54f 37f
9:12pm 9 11 mph 1026.6mb 54f 37f
9:06pm 9 11 mph 1026.4mb 54f 37f
9:00pm 9 13 mph 1026.5mb 54f 37f
8:54pm 10 14 mph 1026.5mb 54f 37f
8:48pm 13 16 mph 1026.2mb 54f 40f
8:42pm 17 22 mph 1026.2mb 54f 40f
8:36pm 21 25 mph 1026.1mb 54f 40f
8:30pm 22 29 mph 1026mb 54f 40f
8:24pm 18 23 mph 1025.8mb 54f 41f
8:18pm 22 26 mph 1025.7mb 54f 40f
8:12pm 21 28 mph 1025.7mb 54f 40f
8:06pm 18 23 mph 1025.5mb 54f 40f
8:00pm 23 29 mph 1025.2mb 54f 41f
7:42pm 25 30 mph 1025mb 54f 41f
7:36pm 29 34 mph 1024.6mb 54f 41f
7:30pm 15 29 mph 1025mb 54f 41f
7:24pm 24 31 mph 1025mb 54f 41f
7:18pm 26 31 mph 1025mb 54f 42f
7:12pm 29 34 mph 1024.8mb 55f 42f
7:06pm 25 34 mph 1024.8mb 55f 42f
7:00pm 29 36 mph 1024.8mb 55f 42f
6:12pm 24 30 mph 1024.2mb 55f 42f
6:06pm 26 30 mph 1024.1mb 55f 42f
6:00pm 25 32 mph 1024mb 55f 42f
5:54pm 25 31 mph 1023.9mb 55f 43f
5:48pm 29 33 mph - - -
5:42pm 28 33 mph 1023.8mb 55f 42f
5:36pm 29 32 mph 1023.5mb 55f 43f
5:30pm 28 34 mph 1023.4mb 55f -
5:24pm 26 31 mph 1023.2mb 55f 43f
5:18pm 28 31 mph 1023.2mb 55f 43f
5:12pm 29 33 mph 1022.9mb 55f 43f
5:06pm 31 37 mph 1022.9mb 55f 43f
5:00pm 33 39 mph 1022.8mb 55f 44f
4:54pm 33 38 mph 1022.6mb 55f 43f
4:48pm 32 38 mph 1022.6mb 55f -
4:42pm 31 38 mph 1022.4mb 56f 44f
4:36pm 29 33 mph 1022.3mb 56f 45f
4:30pm 33 38 mph 1022.2mb 56f 44f
4:24pm 31 37 mph 1022.2mb 56f 44f
4:18pm 30 38 mph 1021.9mb 56f 44f
4:12pm 31 36 mph 1021.7mb 56f 45f
4:06pm 29 34 mph 1021.6mb 56f 45f
4:00pm 29 38 mph 1021.5mb 56f 45f
3:54pm 31 36 mph 1021.5mb 56f 45f
3:48pm 30 37 mph - - -
3:42pm 28 37 mph 1021.6mb 56f 45f
3:36pm 31 37 mph 1021.4mb 56f 45f
3:30pm 30 36 mph 1021.2mb 56f 45f
3:24pm 33 41 mph 1021.1mb 56f 45f
3:18pm 32 39 mph 1020.9mb 56f 45f
3:12pm 32 37 mph 1020.9mb 56f 45f
3:06pm 29 36 mph 1020.7mb 56f 45f
3:00pm 30 34 mph 1020.8mb 56f 45f
2:54pm 30 33 mph 1020.7mb 56f 45f
2:48pm 29 34 mph 1020.4mb 56f 45f
2:42pm 31 39 mph 1020.3mb 56f 45f
2:36pm 32 40 mph 1020.2mb 56f 45f
2:30pm 23 36 mph 1020.3mb 56f 46f
2:24pm 30 36 mph 1020.3mb 56f 45f
2:18pm 33 39 mph 1020.1mb 56f 45f
2:12pm 30 37 mph 1020mb 56f 45f
2:06pm 31 39 mph 1020mb 56f 45f
2:00pm 32 39 mph 1019.8mb 56f 45f
1:54pm 37 43 mph 1019.8mb 56f 45f
1:48pm 32 40 mph 1019.7mb 56f 45f
1:42pm 30 38 mph 1019.6mb 56f 45f
1:36pm 32 39 mph 1019.6mb 56f 45f
1:30pm 34 45 mph 1019.6mb 56f 45f
1:24pm 36 46 mph 1019.6mb 56f 45f
1:18pm 33 39 mph 1019.6mb 56f 45f
1:12pm 31 41 mph 1019.4mb 56f 45f
1:06pm 29 36 mph 1019.4mb 56f 45f
1:00pm 34 39 mph 1019.5mb 56f 45f
12:54pm 31 38 mph 1019.3mb 56f 45f
12:48pm 30 37 mph 1019.3mb 56f -
12:42pm 36 43 mph 1018.9mb 56f 44f
12:36pm 32 39 mph 1018.8mb 56f 45f
12:30pm 29 41 mph 1018.8mb 56f 45f
12:24pm 31 40 mph 1019.1mb 56f 44f
12:18pm 30 34 mph 1019.2mb 56f 44f
12:12pm 31 36 mph 1019.2mb 56f 44f
12:06pm 31 38 mph 1019.1mb 56f 45f
12:00pm 29 37 mph 1019.1mb 56f 45f
11:54am 30 37 mph 1019mb 56f 45f
11:48am 31 38 mph 1019mb 57f -
11:42am 32 38 mph 1019.1mb 57f 44f
11:36am 37 45 mph 1019mb 57f 45f
11:30am 29 40 mph 1018.7mb 56f 45f
11:24am 40 45 mph 1018.2mb 56f 44f
11:18am 40 52 mph 1018.1mb 57f 45f
11:12am 32 40 mph 1018.3mb 57f 45f
11:06am 33 40 mph 1018.7mb 56f 45f
11:00am 40 46 mph 1018.8mb 56f 45f
10:54am 40 46 mph 1018.7mb 56f 44f
10:48am 34 40 mph 1018.8mb 56f -
10:42am 34 40 mph 1018.7mb 57f 45f
10:36am 37 45 mph 1018.7mb 57f 45f
10:30am 34 38 mph 1018.6mb 57f 45f
10:24am 40 46 mph 1018.6mb 56f 45f
10:18am 41 48 mph 1018.6mb 57f 45f
10:12am 34 38 mph 1018.2mb 57f 46f
10:06am 34 41 mph 1018.2mb 57f 46f
10:00am 32 37 mph 1018.1mb 57f 46f
9:54am 29 33 mph 1018.1mb 57f 46f
9:48am 31 38 mph 1018mb 57f 46f
9:42am 31 38 mph 1017.9mb 57f 46f
9:36am 29 33 mph 1017.8mb 57f 46f
9:30am 26 33 mph 1017.8mb 57f 47f
9:24am 32 38 mph 1017.7mb 57f 46f
9:18am 30 38 mph 1017.3mb 57f -
9:12am 29 36 mph 1017.1mb 57f 46f
9:06am 28 31 mph 1017.1mb 57f 47f
9:00am 26 30 mph 1017.4mb 57f 46f
8:54am 30 36 mph 1017.4mb 56f 47f
8:48am 29 34 mph 1017.4mb 57f 47f
8:42am 30 37 mph 1017.4mb 57f 47f
8:36am 29 34 mph 1017.2mb 57f 47f
8:30am 30 36 mph 1017.1mb 57f 47f
8:24am 30 37 mph 1017mb 58f 47f
8:18am 29 32 mph 1016.8mb 58f -
8:12am 29 37 mph 1016.8mb 57f 47f
8:06am 26 33 mph 1016.7mb 57f 48f
8:00am 24 29 mph 1016.5mb 57f 48f
7:54am 25 31 mph 1016.3mb 57f 48f
7:48am 24 28 mph 1016.1mb 57f 48f
7:42am 24 30 mph 1016mb 57f 48f
7:36am 22 28 mph 1015.9mb 57f 48f
7:30am 25 29 mph 1015.8mb 57f 48f
7:24am 22 25 mph 1015.6mb 57f 48f
7:18am 22 24 mph 1015.5mb 58f 48f
7:12am 23 29 mph 1015.4mb 58f 48f
7:06am 25 31 mph 1015.4mb 58f 49f
7:00am 24 28 mph 1015.3mb 58f 49f
6:54am 25 30 mph 1015.1mb 58f 49f
6:48am 25 29 mph - - -
6:42am 28 31 mph 1014.9mb 58f 49f
6:36am 26 32 mph 1014.8mb 58f 49f
6:30am 28 34 mph 1014.7mb 58f 49f
6:24am 29 33 mph 1014.7mb 58f 49f
6:18am 25 31 mph 1014.6mb 58f 50f
6:12am 28 31 mph 1014.4mb 58f 50f
6:06am 26 31 mph 1014.4mb 58f 50f
6:00am 26 32 mph 1014.4mb 58f 50f
5:54am 24 29 mph 1014.3mb 58f 50f
5:48am 23 28 mph 1014.1mb 58f 50f
5:42am 25 30 mph 1014.1mb 58f 50f
5:36am 22 26 mph 1014.1mb 58f 51f
5:30am 23 26 mph 1014mb 58f 50f
5:24am 23 28 mph 1013.9mb 58f 50f
5:18am 22 25 mph 1013.8mb 58f -
5:12am 18 23 mph 1013.8mb 58f 50f
5:06am 21 23 mph 1013.9mb 58f 50f
5:00am 21 24 mph 1013.5mb 58f 50f
4:54am 22 28 mph 1013.5mb 58f 50f
4:48am 22 25 mph 1013.4mb 58f -
4:42am 21 25 mph 1013.4mb 58f 50f
4:36am 21 26 mph 1013.5mb 58f 51f
4:30am 17 21 mph 1013.4mb 58f 51f
4:24am 20 25 mph 1013.4mb 58f 51f
4:18am 18 21 mph 1013.5mb 58f 51f
4:12am 18 22 mph 1013.3mb 58f 51f
4:06am 18 23 mph 1013.2mb 58f 51f
4:00am 21 23 mph 1013mb 58f 51f
3:54am 21 24 mph 1012.9mb 58f 51f
3:48am 21 23 mph 1012.6mb 58f -
3:42am 20 23 mph 1012.5mb 58f 51f
3:36am 20 23 mph 1012.6mb 58f 51f
3:30am 21 24 mph 1012.4mb 58f 51f
3:24am 21 23 mph 1012.6mb 58f 51f
3:18am 21 23 mph 1012.6mb 58f -
3:12am 20 22 mph 1012.7mb 58f 51f
3:06am 23 26 mph 1012.7mb 58f 51f
3:00am 21 23 mph 1012.8mb 58f 51f
2:54am 22 26 mph 1012.7mb 58f 52f
2:48am 25 29 mph 1012.2mb 58f 51f
2:42am 23 28 mph 1012mb 58f 52f
2:36am 24 28 mph 1011.9mb 58f 52f
2:30am 23 28 mph 1011.9mb 58f 52f
2:24am 22 28 mph 1012.2mb 58f 52f
2:18am 22 25 mph 1012.3mb 58f 52f
2:12am 25 30 mph 1012.2mb 58f 52f
2:06am 24 28 mph 1012mb 58f 53f
2:00am 20 24 mph 1011.7mb 58f 53f
1:54am 22 24 mph 1011.7mb 58f 53f
1:48am 21 24 mph 1011.9mb 58f 53f
1:42am 22 26 mph 1011.9mb 58f 53f
1:36am 21 26 mph 1011.5mb 58f 53f
1:30am 20 23 mph 1011.8mb 58f 53f
1:24am 22 26 mph 1011.8mb 58f 53f
1:18am 22 25 mph 1011.7mb 58f 53f
1:12am 17 22 mph 1011mb 58f 53f
1:06am 21 24 mph 1011.2mb 58f 53f
1:00am 21 25 mph 1011.2mb 58f 53f
12:54am 18 22 mph 1011.1mb 58f 53f
12:48am 22 26 mph 1011.2mb 58f 53f
12:42am 22 25 mph 1011.1mb 58f 53f
12:36am 18 22 mph 1010.9mb 58f 53f
12:30am 23 28 mph 1011mb 58f 53f
12:24am 21 28 mph 1011.1mb 58f 53f
12:18am 20 23 mph 1011mb 58f 54f
12:12am 21 24 mph 1010.7mb 58f 53f
12:06am 17 25 mph 1010.4mb 58f 53f
12:00am 16 22 mph - - -
Fri 11/09 11:54pm 16 22 mph 1010.5mb 58f 54f
11:48pm 14 18 mph 1010.6mb 58f 54f
11:42pm 17 21 mph 1010.8mb 58f 54f
11:36pm 13 15 mph 1010mb 58f 54f
11:30pm 15 20 mph 1010.6mb 58f 54f
11:24pm 15 18 mph 1010.5mb 58f 54f
11:18pm 14 16 mph 1010.3mb 58f 54f
11:12pm 16 23 mph 1010.6mb 58f 54f
11:06pm 15 17 mph 1010.2mb 58f 54f
11:00pm 14 17 mph 1010.4mb 58f 54f
10:54pm 11 15 mph 1010.3mb 58f 54f
10:48pm 14 16 mph 1010.3mb - -
10:42pm 13 14 mph 1010.1mb 58f 54f
10:36pm 14 15 mph 1010.3mb 58f 54f
10:30pm 15 17 mph 1010.1mb 58f 54f
10:24pm 13 16 mph 1009.8mb 58f 54f
10:18pm 13 15 mph 1010mb - -
10:12pm 13 14 mph 1010mb 58f 54f
10:06pm 11 13 mph 1010.1mb 58f 54f
10:00pm 11 14 mph 1010.1mb 58f 54f
9:54pm 11 14 mph 1010mb 58f 54f
9:48pm 11 13 mph - - -
9:42pm 11 14 mph 1009.9mb 58f 54f
9:36pm 10 11 mph 1010mb 58f 55f
9:30pm 10 13 mph 1010mb 58f 55f
9:24pm 10 13 mph 1009.9mb 58f 55f
9:18pm 9 10 mph 1010mb 58f -
9:12pm 8 9 mph 1010.1mb 58f 55f
9:06pm 9 11 mph 1010.1mb 58f 55f
9:00pm 8 10 mph 1010.1mb 58f 55f
8:54pm 7 9 mph 1010mb 58f 55f
8:48pm 7 8 mph 1009.9mb 58f 56f
8:42pm 5 6 mph 1009.9mb 58f 56f
8:36pm 5 6 mph 1009.5mb 58f 57f
8:30pm 5 6 mph 1009.6mb 58f 57f
8:24pm 5 5 mph 1009.5mb 58f 57f
8:18pm 6 7 mph 1009.8mb 58f 57f
8:12pm 6 7 mph 1009.7mb 58f 57f
8:06pm 6 7 mph 1009.8mb 58f 57f
8:00pm 5 6 mph 1009.6mb 58f 57f
7:48pm 7 8 mph 1010.3mb - -
7:42pm 7 7 mph 1010.5mb 58f 57f
7:36pm 6 7 mph 1010.4mb 58f 57f
7:30pm 6 7 mph 1010.3mb 58f 57f
7:24pm 7 8 mph 1010.1mb 58f 57f
7:18pm 9 10 mph 1010.3mb - -
7:12pm 9 10 mph 1010.4mb 58f 58f
7:06pm 9 11 mph 1010.5mb 58f 58f
7:00pm 9 10 mph 1010.6mb 58f 58f
6:54pm 9 10 mph 1010.8mb 58f 58f
6:48pm 9 11 mph 1010.9mb 58f 57f
6:42pm 10 11 mph 1010.9mb 57f 57f
6:36pm 9 11 mph 1011mb 57f 57f
6:30pm 10 13 mph 1011.4mb 57f 56f
6:24pm 14 16 mph 1011.5mb 57f 56f
6:18pm 13 14 mph 1011.5mb 57f 57f
6:12pm 14 15 mph 1011.6mb 57f 57f
6:06pm 13 16 mph 1011.6mb 57f 57f
6:00pm 15 18 mph 1011.7mb 57f 57f
5:54pm 15 17 mph 1011.4mb 57f 57f
5:48pm 15 17 mph 1011.8mb 57f 58f
5:42pm 17 21 mph 1011.8mb 57f 58f
5:36pm 16 18 mph 1012.2mb 57f 58f
5:30pm 17 21 mph 1012.3mb 57f 58f
5:24pm 22 29 mph 1011.3mb 57f 58f
5:18pm 15 21 mph 1011.6mb 57f 60f
5:12pm 2 5 mph 1011.7mb 57f 60f
5:06pm 6 10 mph 1011.7mb 57f 60f
5:00pm 7 10 mph 1011.6mb 57f 60f
4:54pm 6 11 mph 1011.8mb 57f 59f
4:48pm 6 8 mph 1012.1mb - -
4:42pm 3 7 mph 1012.4mb 57f 59f
4:36pm 5 8 mph 1012.7mb 57f 59f
4:30pm 9 13 mph 1012.4mb 57f 59f
4:24pm 10 17 mph 1012.2mb 57f 59f
4:18pm 11 16 mph 1012.4mb 57f 60f
4:12pm 13 17 mph 1012.6mb 57f 60f
4:06pm 13 17 mph 1012.8mb 57f 60f
4:00pm 11 16 mph 1012.9mb 57f 60f